sensor_id;sensor_type;location;lat;lon;timestamp;pressure;altitude;pressure_sealevel;temperature;humidity
53089;BME280;38968;47.696;17.540;2022-12-11T00:10:14;9871141;;;3.57;72.10547
53089;BME280;38968;47.696;17.540;2022-12-11T00:15:13;9871050;;;3.62;71.19434
53089;BME280;38968;47.696;17.540;2022-12-11T00:20:14;9871002;;;4.08;69.88672
53089;BME280;38968;47.696;17.540;2022-12-11T00:25:13;9869050;;;3.81;70.98926
53089;BME280;38968;47.696;17.540;2022-12-11T00:30:14;9870344;;;3.78;70.08594
53089;BME280;38968;47.696;17.540;2022-12-11T00:35:14;9869981;;;3.97;69.39746
53089;BME280;38968;47.696;17.540;2022-12-11T00:41:25;9870531;;;3.64;70.78223
53089;BME280;38968;47.696;17.540;2022-12-11T00:46:25;9870603;;;3.8;69.88574
53089;BME280;38968;47.696;17.540;2022-12-11T00:51:25;9870700;;;3.68;69.94434
53089;BME280;38968;47.696;17.540;2022-12-11T00:56:25;9872148;;;3.86;69.16309
53089;BME280;38968;47.696;17.540;2022-12-11T01:01:25;9872317;;;3.85;69.50098
53089;BME280;38968;47.696;17.540;2022-12-11T01:06:27;9871997;;;3.6;69.52832
53089;BME280;38968;47.696;17.540;2022-12-11T01:11:25;9871197;;;3.88;68.00879
53089;BME280;38968;47.696;17.540;2022-12-11T01:16:25;9872672;;;3.77;68.85645
53089;BME280;38968;47.696;17.540;2022-12-11T01:22:55;9870967;;;3.56;69.64453
53089;BME280;38968;47.696;17.540;2022-12-11T01:27:51;9873292;;;3.56;69.31934
53089;BME280;38968;47.696;17.540;2022-12-11T01:32:50;9872762;;;3.74;68.78516
53089;BME280;38968;47.696;17.540;2022-12-11T01:37:50;9874895;;;3.94;68.26563
53089;BME280;38968;47.696;17.540;2022-12-11T01:42:50;9876122;;;3.74;68.57129
53089;BME280;38968;47.696;17.540;2022-12-11T01:47:51;9875402;;;4.05;67.83301
53089;BME280;38968;47.696;17.540;2022-12-11T01:52:50;9875902;;;4.22;67.12695
53089;BME280;38968;47.696;17.540;2022-12-11T01:57:51;9876795;;;3.92;68.23926
53089;BME280;38968;47.696;17.540;2022-12-11T02:02:50;9876587;;;4.27;67.30566
53089;BME280;38968;47.696;17.540;2022-12-11T02:07:57;9876353;;;4.01;67.42285
53089;BME280;38968;47.696;17.540;2022-12-11T02:18:08;9876759;;;4.27;66.66211
53089;BME280;38968;47.696;17.540;2022-12-11T02:27:52;9876011;;;3.99;66.37207
53089;BME280;38968;47.696;17.540;2022-12-11T02:32:57;9875671;;;3.94;66.83691
53089;BME280;38968;47.696;17.540;2022-12-11T02:37:53;9873863;;;3.93;67.17285
53089;BME280;38968;47.696;17.540;2022-12-11T02:42:50;9874281;;;4.03;66.94043
53089;BME280;38968;47.696;17.540;2022-12-11T02:47:51;9872630;;;4.18;65.4873
53089;BME280;38968;47.696;17.540;2022-12-11T02:52:52;9872897;;;4.09;66.79102
53089;BME280;38968;47.696;17.540;2022-12-11T02:58:03;9872314;;;3.9;66.7959
53089;BME280;38968;47.696;17.540;2022-12-11T03:02:50;9871372;;;3.84;66.82129
53089;BME280;38968;47.696;17.540;2022-12-11T03:07:50;9871861;;;4.12;66.2334
53089;BME280;38968;47.696;17.540;2022-12-11T03:12:51;9870902;;;4.2;65.76074
53089;BME280;38968;47.696;17.540;2022-12-11T03:23:08;9872417;;;4.5;64.79297
53089;BME280;38968;47.696;17.540;2022-12-11T03:27:55;9872731;;;4.05;65.68164
53089;BME280;38968;47.696;17.540;2022-12-11T03:33:03;9873303;;;4.31;65.0791
53089;BME280;38968;47.696;17.540;2022-12-11T03:37:51;9873706;;;4.57;65.04883
53089;BME280;38968;47.696;17.540;2022-12-11T03:42:51;9873662;;;4.19;66.25488
53089;BME280;38968;47.696;17.540;2022-12-11T03:47:51;9873119;;;4.42;65.57031
53089;BME280;38968;47.696;17.540;2022-12-11T03:52:51;9873620;;;4.54;64.74121
53089;BME280;38968;47.696;17.540;2022-12-11T03:57:50;9872603;;;4.41;65.51172
53089;BME280;38968;47.696;17.540;2022-12-11T04:02:51;9872858;;;4.45;64.57031
53089;BME280;38968;47.696;17.540;2022-12-11T04:07:50;9872089;;;5.02;62.9043
53089;BME280;38968;47.696;17.540;2022-12-11T04:12:50;9871630;;;4.6;64.5127
53089;BME280;38968;47.696;17.540;2022-12-11T04:17:50;9872972;;;4.21;65.89844
53089;BME280;38968;47.696;17.540;2022-12-11T04:22:50;9874145;;;4.48;64.54102
53089;BME280;38968;47.696;17.540;2022-12-11T04:27:50;9875716;;;4.35;64.67871
53089;BME280;38968;47.696;17.540;2022-12-11T04:32:51;9877083;;;4.46;64.57031
53089;BME280;38968;47.696;17.540;2022-12-11T04:37:51;9877661;;;4.66;63.6543
53089;BME280;38968;47.696;17.540;2022-12-11T04:42:50;9878239;;;4.88;63.20117
53089;BME280;38968;47.696;17.540;2022-12-11T04:47:50;9878156;;;4.85;63.24023
53089;BME280;38968;47.696;17.540;2022-12-11T04:52:50;9880423;;;4.66;64.46582
53089;BME280;38968;47.696;17.540;2022-12-11T04:57:50;9880572;;;4.85;64.23535
53089;BME280;38968;47.696;17.540;2022-12-11T05:02:50;9881437;;;4.84;64.33496
53089;BME280;38968;47.696;17.540;2022-12-11T05:07:49;9881908;;;4.51;65.07617
53089;BME280;38968;47.696;17.540;2022-12-11T05:12:50;9882778;;;4.43;65.23242
53089;BME280;38968;47.696;17.540;2022-12-11T05:17:50;9883644;;;4.4;65.3291
53089;BME280;38968;47.696;17.540;2022-12-11T05:22:50;9884016;;;4.12;66.37988
53089;BME280;38968;47.696;17.540;2022-12-11T05:27:50;9884502;;;4.44;65.63965
53089;BME280;38968;47.696;17.540;2022-12-11T05:32:50;9884916;;;4.6;64.70605
53089;BME280;38968;47.696;17.540;2022-12-11T05:37:50;9885121;;;4.29;65.65039
53089;BME280;38968;47.696;17.540;2022-12-11T05:42:50;9885019;;;4.44;64.62402
53089;BME280;38968;47.696;17.540;2022-12-11T05:47:49;9886782;;;4.02;65.66602
53089;BME280;38968;47.696;17.540;2022-12-11T05:52:51;9886405;;;4.4;64.49512
53089;BME280;38968;47.696;17.540;2022-12-11T05:57:50;9886064;;;4.35;64.19336
53089;BME280;38968;47.696;17.540;2022-12-11T06:02:50;9886236;;;4.36;64.05957
53089;BME280;38968;47.696;17.540;2022-12-11T06:07:50;9887739;;;4.83;62.83203
53089;BME280;38968;47.696;17.540;2022-12-11T06:12:50;9887533;;;4.31;63.59082
53089;BME280;38968;47.696;17.540;2022-12-11T06:17:50;9886953;;;4.03;64.86719
53089;BME280;38968;47.696;17.540;2022-12-11T06:22:50;9888152;;;4.16;64.50391
53089;BME280;38968;47.696;17.540;2022-12-11T06:27:50;9888381;;;4.47;63.11719
53089;BME280;38968;47.696;17.540;2022-12-11T06:32:50;9889267;;;4.2;64.56543
53089;BME280;38968;47.696;17.540;2022-12-11T06:37:50;9891078;;;4.2;64.61133
53089;BME280;38968;47.696;17.540;2022-12-11T06:42:50;9890658;;;4.1;65.31738
53089;BME280;38968;47.696;17.540;2022-12-11T06:47:50;9889807;;;3.91;66.14551
53089;BME280;38968;47.696;17.540;2022-12-11T06:52:50;9892266;;;4.45;64.64941
53089;BME280;38968;47.696;17.540;2022-12-11T06:57:50;9892973;;;4.23;66.19434
53089;BME280;38968;47.696;17.540;2022-12-11T07:02:50;9893244;;;4.1;66.92871
53089;BME280;38968;47.696;17.540;2022-12-11T07:07:52;9894025;;;4;67.15039
53089;BME280;38968;47.696;17.540;2022-12-11T07:12:51;9895242;;;3.86;68.42188
53089;BME280;38968;47.696;17.540;2022-12-11T07:17:50;9895758;;;3.85;67.75586
53089;BME280;38968;47.696;17.540;2022-12-11T07:22:50;9897025;;;4.24;67.23242
53089;BME280;38968;47.696;17.540;2022-12-11T07:27:50;9897206;;;4.12;68.05762
53089;BME280;38968;47.696;17.540;2022-12-11T07:32:50;9897753;;;3.6;70.53906
53089;BME280;38968;47.696;17.540;2022-12-11T07:37:50;9897836;;;3.69;70.04883
53089;BME280;38968;47.696;17.540;2022-12-11T07:42:50;9899905;;;3.68;69.69727
53089;BME280;38968;47.696;17.540;2022-12-11T07:47:50;9900765;;;3.7;70.34082
53089;BME280;38968;47.696;17.540;2022-12-11T07:52:50;9901611;;;3.99;69.16406
53089;BME280;38968;47.696;17.540;2022-12-11T07:57:50;9902831;;;3.74;69.6416
53089;BME280;38968;47.696;17.540;2022-12-11T08:02:50;9902922;;;3.63;69.89258
53089;BME280;38968;47.696;17.540;2022-12-11T08:07:50;9903704;;;3.41;70.67773
53089;BME280;38968;47.696;17.540;2022-12-11T08:12:50;9903416;;;4.07;69.54785
53089;BME280;38968;47.696;17.540;2022-12-11T08:17:50;9904198;;;3.98;68.58691
53089;BME280;38968;47.696;17.540;2022-12-11T08:22:50;9902553;;;4.08;68.6377
53089;BME280;38968;47.696;17.540;2022-12-11T08:27:51;9902113;;;4.21;68.58984
53089;BME280;38968;47.696;17.540;2022-12-11T08:32:50;9902036;;;4.08;68.38965
53089;BME280;38968;47.696;17.540;2022-12-11T08:37:50;9902920;;;3.69;69.16016
53089;BME280;38968;47.696;17.540;2022-12-11T08:42:50;9902883;;;4.32;68.09961
53089;BME280;38968;47.696;17.540;2022-12-11T08:47:50;9903952;;;3.67;68.53711
53089;BME280;38968;47.696;17.540;2022-12-11T08:52:51;9904990;;;3.63;68.94824
53089;BME280;38968;47.696;17.540;2022-12-11T08:57:50;9906200;;;3.5;69.625
53089;BME280;38968;47.696;17.540;2022-12-11T09:02:50;9905420;;;3.64;69.03906
53089;BME280;38968;47.696;17.540;2022-12-11T09:07:50;9905941;;;3.56;68.09375
53089;BME280;38968;47.696;17.540;2022-12-11T09:12:50;9905498;;;3.78;67.12695
53089;BME280;38968;47.696;17.540;2022-12-11T09:17:50;9906191;;;3.74;66.96387
53089;BME280;38968;47.696;17.540;2022-12-11T09:22:50;9905569;;;4.15;65.6748
53089;BME280;38968;47.696;17.540;2022-12-11T09:27:49;9905504;;;3.66;66.47754
53089;BME280;38968;47.696;17.540;2022-12-11T09:32:50;9905336;;;3.49;67.16113
53089;BME280;38968;47.696;17.540;2022-12-11T09:37:50;9905336;;;3.57;66.49707
53089;BME280;38968;47.696;17.540;2022-12-11T09:42:57;9904192;;;4.1;64.93457
53089;BME280;38968;47.696;17.540;2022-12-11T09:47:51;9904348;;;4.36;65.01855
53089;BME280;38968;47.696;17.540;2022-12-11T09:53:06;9904115;;;3.93;65.19043
53089;BME280;38968;47.696;17.540;2022-12-11T10:07:59;9906514;;;4.18;63.52637
53089;BME280;38968;47.696;17.540;2022-12-11T10:17:50;9905427;;;4.9;61.64258
53089;BME280;38968;47.696;17.540;2022-12-11T10:22:51;9904739;;;4.86;60.54199
53089;BME280;38968;47.696;17.540;2022-12-11T10:27:50;9904406;;;4.74;61.04492
53089;BME280;38968;47.696;17.540;2022-12-11T10:32:52;9903853;;;5.13;59.53809
53089;BME280;38968;47.696;17.540;2022-12-11T10:37:50;9905047;;;4.2;61.96094
53089;BME280;38968;47.696;17.540;2022-12-11T10:42:55;9903917;;;4.35;61.79004
53089;BME280;38968;47.696;17.540;2022-12-11T10:48:00;9903530;;;4.86;59.35449
53089;BME280;38968;47.696;17.540;2022-12-11T10:52:50;9904048;;;4.86;60.19141
53089;BME280;38968;47.696;17.540;2022-12-11T10:57:54;9903905;;;5.44;58.09668
53089;BME280;38968;47.696;17.540;2022-12-11T11:02:50;9902728;;;5.89;57.10254
53089;BME280;38968;47.696;17.540;2022-12-11T11:07:50;9901800;;;6.9;53.57324
53089;BME280;38968;47.696;17.540;2022-12-11T11:12:54;9904033;;;6.48;54.31738
53089;BME280;38968;47.696;17.540;2022-12-11T11:17:51;9903786;;;6.38;54.6123
53089;BME280;38968;47.696;17.540;2022-12-11T11:22:57;9904473;;;5.75;56.33691
53089;BME280;38968;47.696;17.540;2022-12-11T11:27:54;9904411;;;5.57;57.20898
53089;BME280;38968;47.696;17.540;2022-12-11T11:32:53;9904369;;;5.94;55.31738
53089;BME280;38968;47.696;17.540;2022-12-11T11:38:01;9904728;;;5.79;57.46484
53089;BME280;38968;47.696;17.540;2022-12-11T11:48:02;9905211;;;6.68;53.1377
53089;BME280;38968;47.696;17.540;2022-12-11T11:52:59;9905702;;;5.6;55.90918
53089;BME280;38968;47.696;17.540;2022-12-11T11:58:00;9905959;;;5.62;55.48047
53089;BME280;38968;47.696;17.540;2022-12-11T12:02:56;9906670;;;4.43;58.97852
53089;BME280;38968;47.696;17.540;2022-12-11T12:08:06;9905192;;;5.51;54.9668
53089;BME280;38968;47.696;17.540;2022-12-11T12:13:09;9906447;;;5.08;55.65918
53089;BME280;38968;47.696;17.540;2022-12-11T12:17:54;9905430;;;4.88;56.05371
53089;BME280;38968;47.696;17.540;2022-12-11T12:28:04;9906155;;;4.42;57.79004
53089;BME280;38968;47.696;17.540;2022-12-11T12:38:09;9904752;;;4.72;57.34473
53089;BME280;38968;47.696;17.540;2022-12-11T12:47:50;9906584;;;4.46;56.08789
53089;BME280;38968;47.696;17.540;2022-12-11T12:52:51;9906994;;;4.76;54.30469
53089;BME280;38968;47.696;17.540;2022-12-11T12:57:52;9905992;;;4.25;55.27148
53089;BME280;38968;47.696;17.540;2022-12-11T13:02:50;9907609;;;4.6;56.11719
53089;BME280;38968;47.696;17.540;2022-12-11T13:07:52;9908323;;;4.19;55.71387
53089;BME280;38968;47.696;17.540;2022-12-11T13:12:50;9907762;;;4.87;54.05762
53089;BME280;38968;47.696;17.540;2022-12-11T13:17:51;9908858;;;3.83;56.88672
53089;BME280;38968;47.696;17.540;2022-12-11T13:27:50;9910325;;;3.78;57.34277
53089;BME280;38968;47.696;17.540;2022-12-11T13:33:16;9910746;;;4.01;55.30859
53089;BME280;38968;47.696;17.540;2022-12-11T13:37:51;9911022;;;3.53;56.99316
53089;BME280;38968;47.696;17.540;2022-12-11T13:43:01;9912317;;;3.08;57.25
53089;BME280;38968;47.696;17.540;2022-12-11T13:47:50;9912655;;;3.65;56.76172
53089;BME280;38968;47.696;17.540;2022-12-11T13:52:55;9912661;;;3.45;55.96875
53089;BME280;38968;47.696;17.540;2022-12-11T13:57:50;9914031;;;3.8;55.41504
53089;BME280;38968;47.696;17.540;2022-12-11T14:02:51;9914722;;;3.74;54.62891
53089;BME280;38968;47.696;17.540;2022-12-11T14:07:51;9915069;;;3.63;55.78906
53089;BME280;38968;47.696;17.540;2022-12-11T14:17:50;9916962;;;3.69;56.22559
53089;BME280;38968;47.696;17.540;2022-12-11T14:22:51;9916191;;;3.51;56.17871
53089;BME280;38968;47.696;17.540;2022-12-11T14:27:52;9916014;;;3.67;54.96875
53089;BME280;38968;47.696;17.540;2022-12-11T14:32:52;9917484;;;3.45;55.29004
53089;BME280;38968;47.696;17.540;2022-12-11T14:37:51;9918516;;;3.19;56.29492
53089;BME280;38968;47.696;17.540;2022-12-11T14:42:54;9918330;;;4.11;53.36328
53089;BME280;38968;47.696;17.540;2022-12-11T14:47:51;9917728;;;4.06;53.30176
53089;BME280;38968;47.696;17.540;2022-12-11T14:52:52;9919289;;;3.74;54.39063
53089;BME280;38968;47.696;17.540;2022-12-11T14:57:53;9918312;;;4.49;52.44922
53089;BME280;38968;47.696;17.540;2022-12-11T15:03:02;9919804;;;3.77;53.61523
53089;BME280;38968;47.696;17.540;2022-12-11T15:08:00;9919033;;;3.53;54.75879
53089;BME280;38968;47.696;17.540;2022-12-11T15:12:50;9919631;;;3.82;53.78027
53089;BME280;38968;47.696;17.540;2022-12-11T15:17:50;9920670;;;3.5;54.75684
53089;BME280;38968;47.696;17.540;2022-12-11T15:22:51;9921185;;;3.42;55.55762
53089;BME280;38968;47.696;17.540;2022-12-11T15:27:59;9921186;;;3.58;55.5332
53089;BME280;38968;47.696;17.540;2022-12-11T15:37:54;9921875;;;3.4;55.5332
53089;BME280;38968;47.696;17.540;2022-12-11T15:42:51;9923684;;;3.51;55.71582
53089;BME280;38968;47.696;17.540;2022-12-11T15:47:51;9922909;;;3.27;56.27051
53089;BME280;38968;47.696;17.540;2022-12-11T15:52:52;9923941;;;3.31;56.26563
53089;BME280;38968;47.696;17.540;2022-12-11T15:57:54;9924800;;;3.85;54.47266
53089;BME280;38968;47.696;17.540;2022-12-11T16:02:50;9924113;;;3.7;53.88965
53089;BME280;38968;47.696;17.540;2022-12-11T16:07:51;9924288;;;3.62;54.35352
53089;BME280;38968;47.696;17.540;2022-12-11T16:12:51;9924711;;;4.01;53.47656
53089;BME280;38968;47.696;17.540;2022-12-11T16:18:00;9924623;;;4.12;53.47754
53089;BME280;38968;47.696;17.540;2022-12-11T16:22:50;9924539;;;4.05;53.64941
53089;BME280;38968;47.696;17.540;2022-12-11T16:27:50;9924716;;;3.77;54.04492
53089;BME280;38968;47.696;17.540;2022-12-11T16:32:50;9924627;;;3.99;53.79004
53089;BME280;38968;47.696;17.540;2022-12-11T16:37:52;9925056;;;4.02;53.36426
53089;BME280;38968;47.696;17.540;2022-12-11T16:42:50;9924623;;;4.16;53.23438
53089;BME280;38968;47.696;17.540;2022-12-11T16:47:51;9924802;;;3.38;54.07422
53089;BME280;38968;47.696;17.540;2022-12-11T16:52:50;9925492;;;3.8;52.88477
53089;BME280;38968;47.696;17.540;2022-12-11T16:57:50;9924458;;;3.8;52.77148
53089;BME280;38968;47.696;17.540;2022-12-11T17:02:51;9925402;;;4.04;52.03223
53089;BME280;38968;47.696;17.540;2022-12-11T17:07:51;9925147;;;3.43;52.4209
53089;BME280;38968;47.696;17.540;2022-12-11T17:12:50;9925317;;;3.94;51.18262
53089;BME280;38968;47.696;17.540;2022-12-11T17:17:51;9926524;;;3.43;51.95898
53089;BME280;38968;47.696;17.540;2022-12-11T17:22:51;9925405;;;3.66;51.40918
53089;BME280;38968;47.696;17.540;2022-12-11T17:27:50;9927645;;;3.39;52.13379
53089;BME280;38968;47.696;17.540;2022-12-11T17:32:50;9926698;;;3.32;52.65625
53089;BME280;38968;47.696;17.540;2022-12-11T17:37:50;9927733;;;3.52;51.73242
53089;BME280;38968;47.696;17.540;2022-12-11T17:42:50;9928938;;;3.65;51.15918
53089;BME280;38968;47.696;17.540;2022-12-11T17:47:50;9928592;;;3.27;52.14063
53089;BME280;38968;47.696;17.540;2022-12-11T17:52:50;9928248;;;3.26;52.23047
53089;BME280;38968;47.696;17.540;2022-12-11T17:57:50;9928331;;;3.14;51.90039
53089;BME280;38968;47.696;17.540;2022-12-11T18:02:50;9929628;;;3.51;51.85449
53089;BME280;38968;47.696;17.540;2022-12-11T18:07:50;9929197;;;3.45;51.61035
53089;BME280;38968;47.696;17.540;2022-12-11T18:12:50;9929367;;;3.33;51.93457
53089;BME280;38968;47.696;17.540;2022-12-11T18:17:50;9929192;;;3.16;52.28711
53089;BME280;38968;47.696;17.540;2022-12-11T18:22:50;9930570;;;3.21;52.43945
53089;BME280;38968;47.696;17.540;2022-12-11T18:27:50;9931089;;;3.34;51.96973
53089;BME280;38968;47.696;17.540;2022-12-11T18:32:51;9931178;;;3.65;51.55469
53089;BME280;38968;47.696;17.540;2022-12-11T18:37:50;9930746;;;3.47;51.52246
53089;BME280;38968;47.696;17.540;2022-12-11T18:42:50;9932470;;;3.59;50.9707
53089;BME280;38968;47.696;17.540;2022-12-11T18:47:52;9932557;;;3.5;51.12012
53089;BME280;38968;47.696;17.540;2022-12-11T18:52:57;9933417;;;3.44;50.76172
53089;BME280;38968;47.696;17.540;2022-12-11T18:57:52;9932298;;;3.44;50.83984
53089;BME280;38968;47.696;17.540;2022-12-11T19:02:51;9932727;;;3.4;50.80176
53089;BME280;38968;47.696;17.540;2022-12-11T19:07:50;9933753;;;3.1;50.7998
53089;BME280;38968;47.696;17.540;2022-12-11T19:12:50;9934016;;;3.37;50.69629
53089;BME280;38968;47.696;17.540;2022-12-11T19:17:50;9934105;;;3.39;50.42773
53089;BME280;38968;47.696;17.540;2022-12-11T19:22:51;9935134;;;3.23;50.69043
53089;BME280;38968;47.696;17.540;2022-12-11T19:27:50;9934964;;;3.35;50.15137
53089;BME280;38968;47.696;17.540;2022-12-11T19:32:50;9934966;;;3.4;50.11133
53089;BME280;38968;47.696;17.540;2022-12-11T19:37:50;9935730;;;3.05;50.90723
53089;BME280;38968;47.696;17.540;2022-12-11T19:42:51;9935907;;;3.15;50.15137
53089;BME280;38968;47.696;17.540;2022-12-11T19:47:52;9936680;;;3.1;50.46191
53089;BME280;38968;47.696;17.540;2022-12-11T19:52:50;9936774;;;3.41;51.18848
53089;BME280;38968;47.696;17.540;2022-12-11T19:57:51;9938231;;;3.18;52.63867
53089;BME280;38968;47.696;17.540;2022-12-11T20:02:51;9938052;;;3;54.5459
53089;BME280;38968;47.696;17.540;2022-12-11T20:07:51;9939907;;;2.32;57.94629
53089;BME280;38968;47.696;17.540;2022-12-11T20:12:50;9938905;;;2.81;57.67578
53089;BME280;38968;47.696;17.540;2022-12-11T20:17:58;9940009;;;2.55;59.48633
53089;BME280;38968;47.696;17.540;2022-12-11T20:22:55;9939998;;;2.4;60.62207
53089;BME280;38968;47.696;17.540;2022-12-11T20:27:53;9939834;;;2.54;60.56445
53089;BME280;38968;47.696;17.540;2022-12-11T20:32:51;9939494;;;2.58;61.00781
53089;BME280;38968;47.696;17.540;2022-12-11T20:37:51;9938980;;;2.66;61.54785
53089;BME280;38968;47.696;17.540;2022-12-11T20:42:50;9940070;;;2.22;64.08984
53089;BME280;38968;47.696;17.540;2022-12-11T20:47:51;9940156;;;2.2;64.89453
53089;BME280;38968;47.696;17.540;2022-12-11T20:52:51;9940409;;;2.13;65.13184
53089;BME280;38968;47.696;17.540;2022-12-11T20:57:51;9939055;;;2.45;64.38184
53089;BME280;38968;47.696;17.540;2022-12-11T21:02:50;9940088;;;2.45;64.52734
53089;BME280;38968;47.696;17.540;2022-12-11T21:07:52;9938295;;;2.73;64.04102
53089;BME280;38968;47.696;17.540;2022-12-11T21:12:50;9938369;;;2.49;65.01563
53089;BME280;38968;47.696;17.540;2022-12-11T21:17:50;9938120;;;2.62;64.54297
53089;BME280;38968;47.696;17.540;2022-12-11T21:22:50;9938858;;;2.09;65.84277
53089;BME280;38968;47.696;17.540;2022-12-11T21:27:51;9938188;;;2.37;64.84082
53089;BME280;38968;47.696;17.540;2022-12-11T21:32:50;9938523;;;2.24;65.26953
53089;BME280;38968;47.696;17.540;2022-12-11T21:37:50;9939920;;;2.53;63.75293
53089;BME280;38968;47.696;17.540;2022-12-11T21:42:50;9939497;;;2.64;62.30957
53089;BME280;38968;47.696;17.540;2022-12-11T21:47:50;9939325;;;2.62;62.64258
53089;BME280;38968;47.696;17.540;2022-12-11T21:52:50;9937934;;;2.43;62.40234
53089;BME280;38968;47.696;17.540;2022-12-11T21:57:52;9937852;;;2.47;62.28516
53089;BME280;38968;47.696;17.540;2022-12-11T22:02:51;9938138;;;2.98;60.20898
53089;BME280;38968;47.696;17.540;2022-12-11T22:07:50;9937948;;;2.64;59.82422
53089;BME280;38968;47.696;17.540;2022-12-11T22:12:50;9938640;;;2.67;59.81641
53089;BME280;38968;47.696;17.540;2022-12-11T22:17:50;9938130;;;2.79;59.29395
53089;BME280;38968;47.696;17.540;2022-12-11T22:22:50;9937945;;;2.55;60.43066
53089;BME280;38968;47.696;17.540;2022-12-11T22:27:50;9938203;;;2.55;60.56543
53089;BME280;38968;47.696;17.540;2022-12-11T22:32:50;9939059;;;2.5;60.00684
53089;BME280;38968;47.696;17.540;2022-12-11T22:37:49;9938980;;;2.63;58.69824
53089;BME280;38968;47.696;17.540;2022-12-11T22:42:50;9939153;;;2.62;58.68555
53089;BME280;38968;47.696;17.540;2022-12-11T22:47:50;9939617;;;1.94;61.62305
53089;BME280;38968;47.696;17.540;2022-12-11T22:52:49;9938802;;;2.5;59.83887
53089;BME280;38968;47.696;17.540;2022-12-11T22:57:50;9939298;;;2.25;59.75879
53089;BME280;38968;47.696;17.540;2022-12-11T23:02:50;9939388;;;2.26;59.71484
53089;BME280;38968;47.696;17.540;2022-12-11T23:07:50;9939727;;;2.23;59.99219
53089;BME280;38968;47.696;17.540;2022-12-11T23:12:50;9940753;;;2.16;60.43066
53089;BME280;38968;47.696;17.540;2022-12-11T23:17:50;9939830;;;2.44;59.16602
53089;BME280;38968;47.696;17.540;2022-12-11T23:22:50;9939672;;;2.72;58.91309
53089;BME280;38968;47.696;17.540;2022-12-11T23:27:50;9940959;;;2.61;59.59473
53089;BME280;38968;47.696;17.540;2022-12-11T23:32:49;9940794;;;2.77;58.55859
53089;BME280;38968;47.696;17.540;2022-12-11T23:37:50;9941059;;;2.89;58.03516
53089;BME280;38968;47.696;17.540;2022-12-11T23:42:50;9940370;;;2.86;57.9082
53089;BME280;38968;47.696;17.540;2022-12-11T23:47:50;9940456;;;2.87;56.90625
53089;BME280;38968;47.696;17.540;2022-12-11T23:52:51;9940109;;;2.79;57.36914
53089;BME280;38968;47.696;17.540;2022-12-11T23:57:50;9941489;;;2.85;56.87012
